Amherst, Nova Scotia

9:33 AM ADT on September 04, 2015 (GMT -0300)
Amherst | | Change Station
CLOSE
Current Station
Personal Weather Station
Location: Amherst, NOVA SCOTIA
Elevation: 151 ft
Nearby Weather Stations

Elev 151 ft 45.82 °N, 64.19 °W | Updated 7 minutes ago

Partly Cloudy
Partly Cloudy
60.8 °F
Feels Like 60.8 °F
N
4.2
Wind Variable Wind from NNW

Today is forecast to be nearly the same temperature as yesterday.

Today
High -- | Low -- °F
--% Chance of Precip.
Yesterday
High -- | Low -- °F
Precip. -- in
6:41 AM 7:50 PM
Waning Gibbous, 60% visible
Pressure 30.16 in
Visibility 15.0 miles
Clouds Few 3500 ft
Few 26000 ft
Dew Point 54 °F
Humidity 79%
Rainfall 0.00 in
Snow Depth Not available.
UV 2 out of 12
Pollen Not available.
Air Quality Not available.
Flu Activity Not available.
METAR CYQM 041200Z 33007KT 15SM FEW035 FEW260 14/10 A3016 RMK SC1CI1 SC TR SLP213
Pressure 30.16 in
Visibility 15.0 miles
Clouds Few 3500 ft
Few 26000 ft
Dew Point 54 °F
Humidity 79%
Rainfall 0.00 in
Snow Depth Not available.
UV 2 out of 12
Pollen Not available.
Air Quality Not available.
Flu Activity Not available.
METAR CYQM 041200Z 33007KT 15SM FEW035 FEW260 14/10 A3016 RMK SC1CI1 SC TR SLP213

10-Day Weather Forecast

×

Almanac

Astronomy

Sep. 04, 2015 Rise Set
Actual Time
Civil Twilight
Nautical Twilight
Astronomical Twilight
Moon
Length of Visible Light
Length of Day
Tomorrow will be .
, % of the Moon is Illuminated

Today's Extremes

Country Highs Country Lows

Community

WunderPhotos

Upload Photos

1,852,170 photos uploaded!

WunderBlogs® & News

Nearby

Air Quality

  Air Quality AQ Index Pollutant
Not available.

Snow Depth

Station Depth Elevation

Earthquake Activity

City Distance Mag. Time & Date
Minimum magnitude displayed is 2.5.

Coastal Water Temperatures

Place Temperature

Stations

Nearby Weather Stations

Station Location Temp. Windchill Dew Point Humidity Wind Precip. Elev Updated Type